createdAt,value
2022-08-27T00:00:49.390Z,19.10
2022-08-27T00:03:17.119Z,19.08
2022-08-27T00:05:44.483Z,19.13
2022-08-27T00:08:13.186Z,19.07
2022-08-27T00:10:41.781Z,19.07
2022-08-27T00:13:09.094Z,19.06
2022-08-27T00:15:35.842Z,19.00
2022-08-27T00:18:02.594Z,19.06
2022-08-27T00:20:29.268Z,19.04
2022-08-27T00:22:56.053Z,19.12
2022-08-27T00:25:23.670Z,19.19
2022-08-27T00:27:51.094Z,19.15
2022-08-27T00:30:21.136Z,19.19
2022-08-27T00:32:48.565Z,19.22
2022-08-27T00:35:17.194Z,19.15
2022-08-27T00:37:44.861Z,19.19
2022-08-27T00:40:19.749Z,19.19
2022-08-27T00:42:47.635Z,19.22
2022-08-27T00:45:20.738Z,19.22
2022-08-27T00:47:55.803Z,19.33
2022-08-27T00:50:37.559Z,19.28
2022-08-27T00:53:19.381Z,19.22
2022-08-27T00:56:02.898Z,19.17
2022-08-27T00:58:35.480Z,19.18
2022-08-27T01:01:03.006Z,19.22
2022-08-27T01:03:30.198Z,19.19
2022-08-27T01:06:01.906Z,19.22
2022-08-27T01:08:34.339Z,19.24
2022-08-27T01:11:02.205Z,19.29
2022-08-27T01:13:58.692Z,19.31
2022-08-27T01:16:32.690Z,19.37
2022-08-27T01:19:46.861Z,19.35
2022-08-27T01:22:46.721Z,19.42
2022-08-27T01:25:17.128Z,19.44
2022-08-27T01:27:45.934Z,19.41
2022-08-27T01:30:17.502Z,19.43
2022-08-27T01:32:45.918Z,19.40
2022-08-27T01:35:14.805Z,19.37
2022-08-27T01:37:45.239Z,19.30
2022-08-27T01:40:16.802Z,19.31
2022-08-27T01:42:50.221Z,19.38
2022-08-27T01:45:24.787Z,19.41
2022-08-27T01:47:52.078Z,19.38
2022-08-27T01:50:25.027Z,19.35
2022-08-27T01:52:54.137Z,19.40
2022-08-27T01:55:25.612Z,19.34
2022-08-27T01:57:54.397Z,19.32
2022-08-27T02:00:29.680Z,19.39
2022-08-27T02:02:59.263Z,19.42
2022-08-27T02:05:28.081Z,19.43
2022-08-27T02:07:55.768Z,19.45
2022-08-27T02:10:31.352Z,19.46
2022-08-27T02:12:58.201Z,19.41
2022-08-27T02:15:26.284Z,19.43
2022-08-27T02:17:53.041Z,19.42
2022-08-27T02:20:22.068Z,19.48
2022-08-27T02:22:49.657Z,19.48
2022-08-27T02:25:19.421Z,19.50
2022-08-27T02:27:48.589Z,19.53
2022-08-27T02:30:21.017Z,19.49
2022-08-27T02:32:48.071Z,19.53
2022-08-27T02:35:16.800Z,19.50
2022-08-27T02:37:44.591Z,19.49
2022-08-27T02:40:17.308Z,19.41
2022-08-27T02:42:45.616Z,19.43
2022-08-27T02:45:14.414Z,19.40
2022-08-27T02:47:41.475Z,19.32
2022-08-27T02:50:10.351Z,19.31
2022-08-27T02:52:37.489Z,19.32
2022-08-27T02:55:06.590Z,19.31
2022-08-27T02:57:36.588Z,19.29
2022-08-27T03:00:08.963Z,19.36
2022-08-27T03:02:36.557Z,19.25
2022-08-27T03:05:05.225Z,19.29
2022-08-27T03:07:31.839Z,19.23
2022-08-27T03:09:58.557Z,19.20
2022-08-27T03:12:25.158Z,19.18
2022-08-27T03:14:52.003Z,19.17
2022-08-27T03:17:37.428Z,19.18
2022-08-27T03:20:24.262Z,19.23
2022-08-27T03:22:51.167Z,19.17
2022-08-27T03:25:18.463Z,19.26
2022-08-27T03:27:45.392Z,19.27
2022-08-27T03:30:17.704Z,19.34
2022-08-27T03:32:44.955Z,19.40
2022-08-27T03:35:12.864Z,19.35
2022-08-27T03:37:40.311Z,19.40
2022-08-27T03:40:09.100Z,19.39
2022-08-27T03:42:36.787Z,19.45
2022-08-27T03:45:04.854Z,19.48
2022-08-27T03:47:32.347Z,19.43
2022-08-27T03:50:00.625Z,19.49
2022-08-27T03:52:28.881Z,19.42
2022-08-27T03:54:55.673Z,19.47
2022-08-27T03:57:22.347Z,19.49
2022-08-27T03:59:48.959Z,19.44
2022-08-27T04:02:21.098Z,19.44
2022-08-27T04:04:47.851Z,19.40
2022-08-27T04:07:14.529Z,19.32
2022-08-27T04:09:41.156Z,19.35
2022-08-27T04:12:08.325Z,19.27
2022-08-27T04:14:34.991Z,19.23
2022-08-27T04:17:02.268Z,19.20
2022-08-27T04:19:42.868Z,19.19
2022-08-27T04:22:09.539Z,19.23
2022-08-27T04:24:37.932Z,19.20
2022-08-27T04:27:06.101Z,19.17
2022-08-27T04:29:33.442Z,19.23
2022-08-27T04:32:01.243Z,19.17
2022-08-27T04:34:28.083Z,19.25
2022-08-27T04:36:56.903Z,19.21
2022-08-27T04:39:26.038Z,19.26
2022-08-27T04:41:56.083Z,19.23
2022-08-27T04:44:25.328Z,19.11
2022-08-27T04:46:57.984Z,19.13
2022-08-27T04:49:26.870Z,19.12
2022-08-27T04:51:55.123Z,19.14
2022-08-27T04:54:32.168Z,19.15
2022-08-27T04:57:03.941Z,19.20
2022-08-27T04:59:31.792Z,19.28
2022-08-27T05:01:59.609Z,19.23
2022-08-27T05:04:26.612Z,19.27
2022-08-27T05:06:54.819Z,19.30
2022-08-27T05:09:21.698Z,19.21
2022-08-27T05:11:52.149Z,19.22
2022-08-27T05:14:19.870Z,19.29
2022-08-27T05:16:47.560Z,19.31
2022-08-27T05:19:33.332Z,19.27
2022-08-27T05:22:01.479Z,19.31
2022-08-27T05:24:28.167Z,19.42
2022-08-27T05:26:54.766Z,19.39
2022-08-27T05:29:22.184Z,19.40
2022-08-27T05:31:48.998Z,19.47
2022-08-27T05:34:22.203Z,19.47
2022-08-27T05:36:53.400Z,19.43
2022-08-27T05:39:20.050Z,19.38
2022-08-27T05:41:46.740Z,19.41
2022-08-27T05:47:03.120Z,19.39
2022-08-27T05:49:29.728Z,19.44
2022-08-27T05:51:56.315Z,19.47
2022-08-27T05:54:23.621Z,19.47
2022-08-27T05:56:50.458Z,19.50
2022-08-27T05:59:37.212Z,19.55
2022-08-27T06:02:05.964Z,19.57
2022-08-27T06:04:32.571Z,19.58
2022-08-27T06:06:59.162Z,19.52
2022-08-27T06:09:29.258Z,19.64
2022-08-27T06:11:59.992Z,19.59
2022-08-27T06:14:27.654Z,19.58
2022-08-27T06:16:55.332Z,19.65
2022-08-27T06:19:36.201Z,19.66
2022-08-27T06:22:09.887Z,19.68
2022-08-27T06:24:40.268Z,19.69
2022-08-27T06:27:08.965Z,19.77
2022-08-27T06:29:35.555Z,19.83
2022-08-27T06:32:02.434Z,19.87
2022-08-27T06:34:29.367Z,19.91
2022-08-27T06:36:55.969Z,19.91
2022-08-27T06:39:22.523Z,19.94
2022-08-27T06:41:50.241Z,19.98
2022-08-27T06:44:17.627Z,20.11
2022-08-27T06:46:44.381Z,20.17
2022-08-27T06:49:12.762Z,19.98
2022-08-27T06:51:44.723Z,20.02
2022-08-27T06:54:14.582Z,20.14
2022-08-27T06:56:44.417Z,20.16
2022-08-27T06:59:15.508Z,20.34
2022-08-27T07:01:46.843Z,20.39
2022-08-27T07:04:22.644Z,20.46
2022-08-27T07:06:57.525Z,20.62
2022-08-27T07:09:25.393Z,20.60
2022-08-27T07:11:52.040Z,20.57
2022-08-27T07:14:18.974Z,20.63
2022-08-27T07:16:45.608Z,20.72
2022-08-27T07:19:15.931Z,20.76
2022-08-27T07:21:44.106Z,20.56
2022-08-27T07:24:12.293Z,20.64
2022-08-27T07:26:49.655Z,20.71
2022-08-27T07:29:29.188Z,20.61
2022-08-27T07:32:01.103Z,20.64
2022-08-27T07:34:28.136Z,20.58
2022-08-27T07:37:17.243Z,20.48
2022-08-27T07:39:47.636Z,20.66
2022-08-27T07:42:41.018Z,20.70
2022-08-27T07:45:25.173Z,20.63
2022-08-27T07:48:05.416Z,20.72
2022-08-27T07:51:18.888Z,20.68
2022-08-27T07:53:51.311Z,20.76
2022-08-27T07:56:36.972Z,20.63
2022-08-27T07:59:47.040Z,20.69
2022-08-27T08:02:39.541Z,20.75
2022-08-27T08:05:12.683Z,20.79
2022-08-27T08:08:21.772Z,20.78
2022-08-27T08:10:51.279Z,20.90
2022-08-27T08:14:09.288Z,20.91
2022-08-27T08:16:53.748Z,20.97
2022-08-27T08:20:08.525Z,21.02
2022-08-27T08:22:59.225Z,21.20
2022-08-27T08:25:57.410Z,21.36
2022-08-27T08:36:01.796Z,21.66
2022-08-27T08:39:09.240Z,21.57
2022-08-27T08:49:58.099Z,21.90
2022-08-27T08:55:08.962Z,21.89
2022-08-27T08:57:18.592Z,22.23
2022-08-27T09:02:49.870Z,21.95
2022-08-27T09:07:04.396Z,22.09
2022-08-27T09:08:53.498Z,21.98
2022-08-27T09:19:17.480Z,21.87
2022-08-27T09:22:26.961Z,21.87
2022-08-27T09:26:02.370Z,21.94
2022-08-27T09:29:52.141Z,22.13
2022-08-27T09:32:17.732Z,22.18
2022-08-27T09:39:14.786Z,22.43
2022-08-27T09:46:04.786Z,22.28
2022-08-27T09:50:00.001Z,22.35
2022-08-27T09:52:06.335Z,22.36
2022-08-27T09:55:33.081Z,22.36
2022-08-27T10:02:09.128Z,22.14
2022-08-27T10:05:23.740Z,21.85
2022-08-27T10:12:28.710Z,21.87
2022-08-27T10:15:44.064Z,21.81
2022-08-27T10:18:27.749Z,21.77
2022-08-27T10:25:29.220Z,21.63
2022-08-27T10:29:12.759Z,21.87
2022-08-27T10:47:25.842Z,22.39
2022-08-27T10:50:13.864Z,22.21
2022-08-27T10:52:58.561Z,22.39
2022-08-27T10:56:07.883Z,22.48
2022-08-27T11:03:35.549Z,22.60
2022-08-27T11:07:15.556Z,23.00
2022-08-27T11:10:48.913Z,23.04
2022-08-27T11:13:39.696Z,22.99
2022-08-27T11:17:16.640Z,23.52
2022-08-27T11:23:57.389Z,23.86
2022-08-27T11:26:53.457Z,23.74
2022-08-27T11:29:47.379Z,23.61
2022-08-27T11:37:29.996Z,23.60
2022-08-27T11:40:22.466Z,23.50
2022-08-27T11:43:32.801Z,23.49
2022-08-27T11:57:27.385Z,24.22
2022-08-27T12:01:22.094Z,24.14
2022-08-27T12:05:15.986Z,24.12
2022-08-27T12:07:44.699Z,24.00
2022-08-27T12:10:52.152Z,24.29
2022-08-27T12:22:39.996Z,24.64
2022-08-27T12:28:05.728Z,25.31
2022-08-27T12:37:07.535Z,26.40
2022-08-27T12:40:32.274Z,26.00
2022-08-27T12:43:20.157Z,26.06
2022-08-27T12:47:05.038Z,26.22
2022-08-27T12:53:56.767Z,26.13
2022-08-27T12:57:39.111Z,25.80
2022-08-27T13:05:37.267Z,25.85
2022-08-27T13:08:45.273Z,25.85
2022-08-27T13:16:02.771Z,25.49
2022-08-27T13:19:32.777Z,25.60
2022-08-27T13:26:10.859Z,25.31
2022-08-27T13:28:53.331Z,25.12
2022-08-27T13:32:20.055Z,25.75
2022-08-27T13:35:43.779Z,27.38
2022-08-27T13:38:35.182Z,28.42
2022-08-27T13:43:08.817Z,28.60
2022-08-27T13:48:28.899Z,31.15
2022-08-27T13:51:15.881Z,31.88
2022-08-27T13:57:52.351Z,33.20
2022-08-27T14:05:16.610Z,33.96
2022-08-27T14:08:40.524Z,34.49
2022-08-27T14:12:17.117Z,35.25
2022-08-27T14:41:25.157Z,27.87
2022-08-27T14:43:57.709Z,27.38
2022-08-27T14:50:40.124Z,26.81
2022-08-27T14:54:06.009Z,26.53
2022-08-27T15:00:28.207Z,26.06
2022-08-27T15:03:32.538Z,25.86
2022-08-27T15:07:01.002Z,25.60
2022-08-27T15:13:15.177Z,25.43
2022-08-27T15:20:19.842Z,25.58
2022-08-27T15:23:40.660Z,25.72
2022-08-27T15:26:43.502Z,26.11
2022-08-27T15:33:28.908Z,27.07
2022-08-27T15:36:21.605Z,27.09
2022-08-27T15:39:36.523Z,27.13
2022-08-27T15:42:50.920Z,27.28
2022-08-27T15:46:03.981Z,27.03
2022-08-27T15:48:33.629Z,27.27
2022-08-27T15:51:53.151Z,27.45
2022-08-27T15:54:24.391Z,27.48
2022-08-27T15:57:05.096Z,27.77
2022-08-27T15:59:44.563Z,27.84
2022-08-27T16:03:02.870Z,27.35
2022-08-27T16:06:02.449Z,27.00
2022-08-27T16:08:41.986Z,26.87
2022-08-27T16:11:09.946Z,26.81
2022-08-27T16:14:10.698Z,26.77
2022-08-27T16:17:00.782Z,26.57
2022-08-27T16:20:20.543Z,26.43
2022-08-27T16:23:04.962Z,26.57
2022-08-27T16:25:52.384Z,26.51
2022-08-27T16:28:28.171Z,26.55
2022-08-27T16:30:57.356Z,26.58
2022-08-27T16:33:29.022Z,26.21
2022-08-27T16:35:55.812Z,25.91
2022-08-27T16:38:25.215Z,25.84
2022-08-27T16:41:02.225Z,25.58
2022-08-27T16:43:39.072Z,25.31
2022-08-27T16:49:30.944Z,24.32
2022-08-27T16:52:07.208Z,24.22
2022-08-27T16:54:36.973Z,23.87
2022-08-27T16:57:07.469Z,23.75
2022-08-27T17:04:49.356Z,23.50
2022-08-27T17:08:19.544Z,23.24
2022-08-27T17:19:34.130Z,22.81
2022-08-27T17:35:10.514Z,22.27
2022-08-27T17:42:47.001Z,22.09
2022-08-27T18:11:36.398Z,21.43
2022-08-27T18:19:06.999Z,21.39
2022-08-27T18:28:56.279Z,21.30
2022-08-27T23:21:40.245Z,19.61
